Time;durP1;ratioP1;P1;durP2;ratioP2;P2;SDS_P1;SDS_P2;PMS_P1;PMS_P2;Temp;Humidity;BMP_temperature;BMP_pressure;BME280_temperature;BME280_humidity;BME280_pressure;Samples;Min_cycle;Max_cycle;Signal;HPM_P1;HPM_P2
2023/04/29 00:00:56;;;;;;;;;;;;;;;9.99;48.95;98759.20;135343;1281;22513;-66
2023/04/29 00:04:00;;;;;;;;;;;;;;;10.01;49.27;98760.52;131275;1281;5373346;-66
2023/04/29 00:07:03;;;;;;;;;;;;;;;10.04;49.09;98758.54;135372;1281;22507;-67
2023/04/29 00:10:06;;;;;;;;;;;;;;;10.07;49.12;98759.44;135386;1281;22507;-67
2023/04/29 00:13:09;;;;;;;;;;;;;;;10.01;49.31;98757.67;135353;1281;25397;-66
2023/04/29 00:16:12;;;;;;;;;;;;;;;9.94;49.27;98760.02;135384;1281;22505;-67
2023/04/29 00:19:17;;;;;;;;;;;;;;;9.95;49.64;98755.60;135392;1281;22638;-67
2023/04/29 00:22:20;;;;;;;;;;;;;;;9.96;49.24;98755.52;135402;1281;22510;-66
2023/04/29 00:25:32;;;;;;;;;;;;;;;9.93;49.94;98752.73;135285;1281;22537;-66
2023/04/29 00:28:35;;;;;;;;;;;;;;;9.89;49.72;98745.46;135350;1281;22502;-66
2023/04/29 00:31:39;;;;;;;;;;;;;;;9.89;50.21;98743.91;135370;1281;22559;-66
2023/04/29 00:34:42;;;;;;;;;;;;;;;9.87;50.19;98739.48;135383;1281;22496;-66
2023/04/29 00:37:46;;;;;;;;;;;;;;;9.87;50.03;98740.33;135392;1281;22521;-65
2023/04/29 00:40:49;;;;;;;;;;;;;;;9.80;50.19;98739.55;135403;1281;22599;-65
2023/04/29 00:43:53;;;;;;;;;;;;;;;9.76;50.41;98738.91;135357;1281;22503;-66
2023/04/29 00:46:58;;;;;;;;;;;;;;;9.83;50.50;98734.11;135359;1281;22519;-65
2023/04/29 00:50:01;;;;;;;;;;;;;;;9.86;50.11;98729.03;135365;1281;24273;-66
2023/04/29 00:53:04;;;;;;;;;;;;;;;9.88;50.36;98728.45;135386;1267;22519;-66
2023/04/29 00:56:09;;;;;;;;;;;;;;;9.87;50.44;98727.09;135363;1281;22516;-66
2023/04/29 00:59:14;;;;;;;;;;;;;;;9.84;50.76;98729.02;135377;1261;22515;-66
2023/04/29 01:02:18;;;;;;;;;;;;;;;9.80;50.61;98733.44;135353;1281;22614;-66
2023/04/29 01:05:21;;;;;;;;;;;;;;;9.76;50.41;98731.38;135311;1281;22494;-66
2023/04/29 01:08:23;;;;;;;;;;;;;;;9.78;50.37;98732.15;135335;1281;22508;-66
2023/04/29 01:11:27;;;;;;;;;;;;;;;9.95;50.09;98730.95;135348;1262;22507;-66
2023/04/29 01:14:30;;;;;;;;;;;;;;;9.83;50.58;98733.27;135372;1281;25601;-65
2023/04/29 01:17:33;;;;;;;;;;;;;;;9.89;50.54;98732.70;135351;1281;24210;-66
2023/04/29 01:20:39;;;;;;;;;;;;;;;9.91;50.89;98731.54;135333;1281;24240;-67
2023/04/29 01:23:44;;;;;;;;;;;;;;;9.92;50.95;98730.98;135371;1281;24220;-66
2023/04/29 01:26:46;;;;;;;;;;;;;;;9.97;50.81;98733.09;135352;1281;22494;-65
2023/04/29 01:29:49;;;;;;;;;;;;;;;9.76;51.33;98726.88;135348;1281;25269;-66
2023/04/29 01:32:53;;;;;;;;;;;;;;;9.71;51.19;98725.39;135327;1281;22526;-65
2023/04/29 01:35:56;;;;;;;;;;;;;;;9.65;51.83;98725.73;135338;1281;22543;-66
2023/04/29 01:38:59;;;;;;;;;;;;;;;9.59;52.08;98728.89;135374;1281;22510;-65
2023/04/29 01:42:02;;;;;;;;;;;;;;;9.63;51.98;98727.40;135358;1281;22515;-66
2023/04/29 01:45:05;;;;;;;;;;;;;;;9.66;51.69;98730.24;135373;1281;22562;-66
2023/04/29 01:48:09;;;;;;;;;;;;;;;9.76;51.35;98731.55;135326;1281;26574;-66
2023/04/29 01:51:11;;;;;;;;;;;;;;;9.86;51.36;98731.15;135359;1281;25463;-66
2023/04/29 01:54:14;;;;;;;;;;;;;;;9.85;51.27;98728.24;135326;1281;22503;-67
2023/04/29 01:57:16;;;;;;;;;;;;;;;9.82;51.51;98726.36;135360;1281;22510;-68
2023/04/29 02:00:20;;;;;;;;;;;;;;;9.72;51.60;98720.63;135322;1281;25354;-66
2023/04/29 02:03:24;;;;;;;;;;;;;;;9.68;51.83;98718.04;135352;1281;22507;-67
2023/04/29 02:06:26;;;;;;;;;;;;;;;9.64;51.93;98717.64;135314;1262;22527;-66
2023/04/29 02:09:33;;;;;;;;;;;;;;;9.54;52.34;98716.23;135266;1281;22500;-66
2023/04/29 02:12:36;;;;;;;;;;;;;;;9.55;52.10;98716.51;135329;1281;22515;-67
2023/04/29 02:15:39;;;;;;;;;;;;;;;9.51;52.24;98716.75;135293;1281;22522;-64
2023/04/29 02:18:51;;;;;;;;;;;;;;;9.48;52.51;98712.59;135284;1281;22529;-66
2023/04/29 02:22:02;;;;;;;;;;;;;;;9.39;52.59;98710.67;135254;1281;23340;-67
2023/04/29 02:25:06;;;;;;;;;;;;;;;9.36;52.80;98713.11;135356;1281;22585;-68
2023/04/29 02:28:09;;;;;;;;;;;;;;;9.32;52.58;98713.02;135336;1281;22504;-66
2023/04/29 02:31:13;;;;;;;;;;;;;;;9.24;52.69;98711.73;135328;1281;22502;-67
2023/04/29 02:34:16;;;;;;;;;;;;;;;9.18;52.84;98708.23;135302;1281;22513;-68
2023/04/29 02:37:19;;;;;;;;;;;;;;;9.07;53.18;98704.46;135307;1281;22514;-67
2023/04/29 02:40:24;;;;;;;;;;;;;;;9.02;53.31;98704.58;135308;1262;22638;-66
2023/04/29 02:43:29;;;;;;;;;;;;;;;8.90;53.11;98698.60;135375;1281;23214;-66
2023/04/29 02:46:34;;;;;;;;;;;;;;;8.91;53.24;98700.11;135361;1281;25747;-67
2023/04/29 02:49:38;;;;;;;;;;;;;;;8.77;53.87;98700.39;135320;1278;22684;-66
2023/04/29 02:52:41;;;;;;;;;;;;;;;8.71;54.23;98692.89;135327;1262;22521;-66
2023/04/29 02:55:44;;;;;;;;;;;;;;;8.60;54.81;98696.92;135349;1281;22560;-66
2023/04/29 02:58:46;;;;;;;;;;;;;;;8.53;55.15;98697.34;135316;1281;22503;-67
2023/04/29 03:01:50;;;;;;;;;;;;;;;8.48;55.16;98697.97;135356;1281;22492;-65
2023/04/29 03:04:55;;;;;;;;;;;;;;;8.48;55.32;98699.69;135329;1281;22516;-66
2023/04/29 03:07:58;;;;;;;;;;;;;;;8.43;55.51;98693.83;135350;1281;23182;-66
2023/04/29 03:11:02;;;;;;;;;;;;;;;8.36;55.97;98691.06;135354;1281;22514;-67
2023/04/29 03:14:05;;;;;;;;;;;;;;;8.39;56.39;98685.54;135343;1281;22507;-67
2023/04/29 03:17:22;;;;;;;;;;;;;;;8.41;56.44;98685.05;135287;1281;22504;-67
2023/04/29 03:20:26;;;;;;;;;;;;;;;8.41;56.73;98688.40;135308;1281;24340;-68
2023/04/29 03:23:29;;;;;;;;;;;;;;;8.41;56.80;98688.39;135321;1281;22514;-66
2023/04/29 03:26:33;;;;;;;;;;;;;;;8.44;57.08;98691.54;135336;1281;22518;-66
2023/04/29 03:29:37;;;;;;;;;;;;;;;8.50;57.05;98691.04;135367;1281;22503;-66
2023/04/29 03:32:40;;;;;;;;;;;;;;;8.59;57.35;98685.30;135350;1281;25215;-66
2023/04/29 03:35:44;;;;;;;;;;;;;;;8.61;57.23;98684.38;135333;1281;22551;-68
2023/04/29 03:38:48;;;;;;;;;;;;;;;8.68;57.30;98685.02;135341;1281;24368;-66
2023/04/29 03:41:51;;;;;;;;;;;;;;;8.70;57.19;98681.80;135331;1281;22531;-66
2023/04/29 03:44:54;;;;;;;;;;;;;;;8.73;57.20;98677.28;135303;1281;22519;-66
2023/04/29 03:47:57;;;;;;;;;;;;;;;8.73;57.08;98676.54;135306;1262;22524;-67
2023/04/29 03:50:59;;;;;;;;;;;;;;;8.66;57.37;98678.99;135324;1259;22515;-67
2023/04/29 03:54:02;;;;;;;;;;;;;;;8.71;57.87;98675.61;135363;1281;22515;-66
2023/04/29 03:57:05;;;;;;;;;;;;;;;8.72;57.97;98672.96;135343;1281;22515;-66
2023/04/29 04:00:09;;;;;;;;;;;;;;;8.78;58.02;98673.63;135364;1281;22526;-66
2023/04/29 04:03:11;;;;;;;;;;;;;;;8.84;57.70;98672.44;135341;1281;22517;-66
2023/04/29 04:06:14;;;;;;;;;;;;;;;8.94;58.00;98677.48;135348;1281;22612;-66
2023/04/29 04:09:17;;;;;;;;;;;;;;;9.02;57.87;98674.20;135350;1281;22579;-67
2023/04/29 04:12:20;;;;;;;;;;;;;;;9.05;58.51;98676.54;135297;1281;22515;-66
2023/04/29 04:15:23;;;;;;;;;;;;;;;9.10;58.48;98677.99;135320;1281;24405;-67
2023/04/29 04:18:26;;;;;;;;;;;;;;;9.23;58.19;98677.21;135363;1281;22740;-68
2023/04/29 04:21:30;;;;;;;;;;;;;;;9.40;57.81;98679.89;135265;1281;22509;-67
2023/04/29 04:24:34;;;;;;;;;;;;;;;9.52;57.67;98682.19;135345;1281;22503;-66
2023/04/29 04:27:37;;;;;;;;;;;;;;;9.53;57.66;98684.56;135318;1281;22516;-67
2023/04/29 04:30:40;;;;;;;;;;;;;;;9.67;57.16;98682.68;135360;1281;22518;-67
2023/04/29 04:33:43;;;;;;;;;;;;;;;9.75;57.28;98682.94;135290;1281;22538;-66
2023/04/29 04:36:45;;;;;;;;;;;;;;;9.71;57.27;98684.00;135306;1281;22530;-67
2023/04/29 04:39:49;;;;;;;;;;;;;;;9.75;57.28;98679.11;135262;1281;22515;-66
2023/04/29 04:42:52;;;;;;;;;;;;;;;9.80;57.66;98681.37;135249;1261;22502;-66
2023/04/29 04:45:55;;;;;;;;;;;;;;;9.82;57.16;98680.39;135292;1281;22511;-67
2023/04/29 04:48:57;;;;;;;;;;;;;;;9.86;57.38;98677.86;135293;1281;22514;-68
2023/04/29 04:52:00;;;;;;;;;;;;;;;9.95;57.11;98676.98;135326;1281;22530;-67
2023/04/29 04:55:07;;;;;;;;;;;;;;;10.00;57.25;98679.84;135275;1281;24363;-66
2023/04/29 04:58:10;;;;;;;;;;;;;;;10.01;57.25;98678.56;135349;1281;22481;-66
2023/04/29 05:01:13;;;;;;;;;;;;;;;10.03;57.34;98677.58;135308;1281;22497;-67
2023/04/29 05:04:16;;;;;;;;;;;;;;;10.03;57.18;98675.11;135319;1281;22527;-68
2023/04/29 05:07:20;;;;;;;;;;;;;;;9.99;57.38;98675.55;135317;1281;22517;-68
2023/04/29 05:10:25;;;;;;;;;;;;;;;10.01;57.69;98678.05;135324;1281;24039;-67
2023/04/29 05:13:28;;;;;;;;;;;;;;;10.01;57.95;98679.74;135254;1281;22513;-68
2023/04/29 05:16:31;;;;;;;;;;;;;;;10.02;57.88;98680.20;135339;1281;22511;-66
2023/04/29 05:19:34;;;;;;;;;;;;;;;10.02;57.76;98679.36;135290;1281;22687;-67
2023/04/29 05:22:37;;;;;;;;;;;;;;;10.02;58.03;98677.79;135292;1281;24216;-66
2023/04/29 05:25:41;;;;;;;;;;;;;;;10.01;58.14;98676.48;135306;1281;22510;-67
2023/04/29 05:28:44;;;;;;;;;;;;;;;10.09;58.34;98679.29;135306;1281;25217;-66
2023/04/29 05:31:47;;;;;;;;;;;;;;;10.11;58.30;98676.55;135301;1281;22515;-68
2023/04/29 05:34:50;;;;;;;;;;;;;;;10.17;58.49;98675.85;135304;1281;22506;-67
2023/04/29 05:37:54;;;;;;;;;;;;;;;10.29;58.41;98674.39;135319;1281;24280;-67
2023/04/29 05:41:00;;;;;;;;;;;;;;;10.43;58.38;98673.57;135297;1281;22503;-67
2023/04/29 05:44:03;;;;;;;;;;;;;;;10.57;57.79;98676.83;135315;1262;22769;-66
2023/04/29 05:47:06;;;;;;;;;;;;;;;10.65;58.25;98681.98;135292;1262;22620;-67
2023/04/29 05:50:10;;;;;;;;;;;;;;;10.68;57.88;98681.46;135348;1266;22526;-66
2023/04/29 05:53:13;;;;;;;;;;;;;;;10.77;58.45;98679.85;135358;1281;22562;-65
2023/04/29 05:56:19;;;;;;;;;;;;;;;10.89;58.40;98680.11;135308;1281;24297;-66
2023/04/29 05:59:23;;;;;;;;;;;;;;;11.00;58.07;98680.43;135348;1281;22500;-64
2023/04/29 06:02:26;;;;;;;;;;;;;;;11.10;57.91;98675.94;135311;1281;22550;-67
2023/04/29 06:05:30;;;;;;;;;;;;;;;11.25;57.94;98676.73;135284;1281;22545;-67
2023/04/29 06:08:33;;;;;;;;;;;;;;;11.49;57.85;98673.90;135305;1281;22542;-67
2023/04/29 06:11:37;;;;;;;;;;;;;;;11.71;57.42;98673.45;135305;1281;22507;-66
2023/04/29 06:14:41;;;;;;;;;;;;;;;11.93;56.69;98672.49;135298;1281;22530;-66
2023/04/29 06:17:45;;;;;;;;;;;;;;;12.08;56.73;98673.94;135289;1281;22507;-66
2023/04/29 06:20:48;;;;;;;;;;;;;;;12.23;56.62;98673.24;135298;1281;22506;-67
2023/04/29 06:23:52;;;;;;;;;;;;;;;12.36;56.56;98669.56;135328;1281;22541;-65
2023/04/29 06:26:58;;;;;;;;;;;;;;;12.65;55.85;98667.34;135308;1281;22494;-67
2023/04/29 06:30:00;;;;;;;;;;;;;;;12.80;55.77;98665.14;135318;1278;25488;-67
2023/04/29 06:33:04;;;;;;;;;;;;;;;13.02;55.92;98668.66;135298;1281;22507;-67
2023/04/29 06:36:07;;;;;;;;;;;;;;;13.38;55.55;98669.21;135296;1281;22508;-68
2023/04/29 06:39:11;;;;;;;;;;;;;;;13.60;54.84;98666.36;135302;1281;22546;-66
2023/04/29 06:42:14;;;;;;;;;;;;;;;13.83;53.77;98663.55;135333;1281;22531;-66
2023/04/29 06:45:17;;;;;;;;;;;;;;;13.93;54.00;98663.98;135326;1281;24253;-66
2023/04/29 06:48:20;;;;;;;;;;;;;;;14.03;54.12;98661.85;135290;1281;23904;-66
2023/04/29 06:51:23;;;;;;;;;;;;;;;14.24;54.29;98660.00;135346;1281;22519;-66
2023/04/29 06:54:27;;;;;;;;;;;;;;;14.39;53.94;98654.23;135326;1281;25377;-67
2023/04/29 06:57:30;;;;;;;;;;;;;;;14.54;53.65;98656.23;135295;1281;22519;-66
2023/04/29 07:00:34;;;;;;;;;;;;;;;14.63;53.33;98661.33;135298;1281;22508;-66
2023/04/29 07:03:37;;;;;;;;;;;;;;;14.77;53.22;98655.30;135264;1262;22503;-66
2023/04/29 07:06:40;;;;;;;;;;;;;;;15.09;52.77;98650.78;135252;1281;22498;-66
2023/04/29 07:09:43;;;;;;;;;;;;;;;15.40;52.28;98653.17;135277;1281;22504;-65
2023/04/29 07:12:47;;;;;;;;;;;;;;;15.73;52.42;98651.46;135237;1281;22513;-65
2023/04/29 07:15:50;;;;;;;;;;;;;;;16.03;51.84;98647.29;135260;1281;25466;-65
2023/04/29 07:18:53;;;;;;;;;;;;;;;16.06;51.15;98646.21;135256;1266;22488;-66
2023/04/29 07:21:56;;;;;;;;;;;;;;;16.20;50.82;98643.03;135302;1262;22534;-66
2023/04/29 07:24:59;;;;;;;;;;;;;;;16.33;50.88;98642.92;135263;1262;22542;-65
2023/04/29 07:28:03;;;;;;;;;;;;;;;16.36;50.88;98646.25;135289;1281;22533;-67
2023/04/29 07:31:06;;;;;;;;;;;;;;;16.46;50.01;98645.01;135303;1281;24872;-65
2023/04/29 07:34:09;;;;;;;;;;;;;;;16.44;50.39;98646.77;135302;1281;22540;-66
2023/04/29 07:37:13;;;;;;;;;;;;;;;16.52;50.51;98648.54;135375;1281;22500;-66
2023/04/29 07:40:16;;;;;;;;;;;;;;;16.50;50.74;98646.73;135275;1281;25484;-66
2023/04/29 07:43:20;;;;;;;;;;;;;;;16.58;50.76;98648.21;135315;1281;22514;-66
2023/04/29 07:46:25;;;;;;;;;;;;;;;16.71;50.63;98647.70;135319;1281;22554;-66
2023/04/29 07:49:29;;;;;;;;;;;;;;;16.79;50.76;98642.06;135294;1281;22581;-66
2023/04/29 07:52:31;;;;;;;;;;;;;;;16.95;50.79;98643.52;135346;1267;22516;-66
2023/04/29 07:55:35;;;;;;;;;;;;;;;17.17;50.79;98643.65;135335;1281;22496;-67
2023/04/29 07:58:37;;;;;;;;;;;;;;;17.28;50.23;98643.23;135277;1277;22536;-66
2023/04/29 08:01:40;;;;;;;;;;;;;;;17.30;49.76;98641.40;135308;1266;22503;-69
2023/04/29 08:04:42;;;;;;;;;;;;;;;17.25;50.25;98642.05;135278;1281;22511;-65
2023/04/29 08:07:45;;;;;;;;;;;;;;;17.23;50.23;98640.62;135328;1260;22545;-66
2023/04/29 08:10:48;;;;;;;;;;;;;;;17.22;50.24;98640.33;135322;1279;26559;-67
2023/04/29 08:13:51;;;;;;;;;;;;;;;17.32;50.44;98637.50;135263;1281;22507;-66
2023/04/29 08:16:55;;;;;;;;;;;;;;;17.39;50.14;98638.48;135345;1281;24268;-67
2023/04/29 08:19:58;;;;;;;;;;;;;;;17.39;50.09;98639.02;135300;1281;22514;-68
2023/04/29 08:23:01;;;;;;;;;;;;;;;17.41;50.28;98645.02;135289;1281;22506;-68
2023/04/29 08:26:05;;;;;;;;;;;;;;;17.50;50.57;98642.73;135299;1281;22506;-67
2023/04/29 08:29:08;;;;;;;;;;;;;;;17.77;51.01;98645.21;135313;1281;22505;-67
2023/04/29 08:32:15;;;;;;;;;;;;;;;17.99;50.52;98650.61;135279;1281;22498;-69
2023/04/29 08:35:18;;;;;;;;;;;;;;;18.26;50.22;98649.63;135335;1281;22532;-68
2023/04/29 08:38:21;;;;;;;;;;;;;;;18.29;49.84;98648.67;135314;1281;24214;-67
2023/04/29 08:41:24;;;;;;;;;;;;;;;18.43;50.13;98645.88;135316;1281;22509;-68
2023/04/29 08:44:29;;;;;;;;;;;;;;;18.61;49.56;98650.19;135081;1281;22521;-67
2023/04/29 08:47:31;;;;;;;;;;;;;;;18.66;49.81;98652.04;135120;1281;22735;-67
2023/04/29 08:50:35;;;;;;;;;;;;;;;18.76;50.34;98649.92;135251;1281;22504;-67
2023/04/29 08:53:37;;;;;;;;;;;;;;;18.89;49.76;98648.02;135336;1281;23248;-67
2023/04/29 08:56:40;;;;;;;;;;;;;;;19.11;49.18;98645.67;135290;1281;22511;-67
2023/04/29 08:59:43;;;;;;;;;;;;;;;19.28;49.48;98641.14;135281;1281;25470;-67
2023/04/29 09:02:47;;;;;;;;;;;;;;;19.50;48.70;98640.06;135309;1281;22490;-67
2023/04/29 09:05:50;;;;;;;;;;;;;;;19.66;48.46;98643.43;135285;1281;25603;-68
2023/04/29 09:08:53;;;;;;;;;;;;;;;19.85;48.95;98642.05;135331;1281;25379;-67
2023/04/29 09:11:56;;;;;;;;;;;;;;;20.08;48.62;98640.87;135289;1281;22739;-68
2023/04/29 09:15:00;;;;;;;;;;;;;;;20.29;48.05;98641.77;135345;1266;22505;-67
2023/04/29 09:18:02;;;;;;;;;;;;;;;20.56;48.40;98634.00;135288;1281;24386;-66
2023/04/29 09:21:05;;;;;;;;;;;;;;;21.15;47.12;98632.17;135339;1281;25316;-68
2023/04/29 09:24:09;;;;;;;;;;;;;;;21.49;47.26;98634.17;135322;1267;22522;-68
2023/04/29 09:27:12;;;;;;;;;;;;;;;22.12;46.84;98630.27;135298;1281;22516;-68
2023/04/29 09:30:15;;;;;;;;;;;;;;;22.60;45.30;98622.80;135282;1281;22532;-68
2023/04/29 09:33:18;;;;;;;;;;;;;;;22.82;43.91;98620.55;135288;1262;24401;-68
2023/04/29 09:36:21;;;;;;;;;;;;;;;22.98;44.11;98616.59;135327;1281;22507;-67
2023/04/29 09:39:25;;;;;;;;;;;;;;;23.13;43.03;98615.59;135343;1281;22524;-67
2023/04/29 09:42:28;;;;;;;;;;;;;;;23.48;43.53;98612.27;135324;1281;22507;-66
2023/04/29 09:45:32;;;;;;;;;;;;;;;23.73;41.56;98619.70;135272;1281;22516;-67
2023/04/29 09:48:35;;;;;;;;;;;;;;;23.80;41.40;98610.77;135218;1281;22516;-67
2023/04/29 09:51:48;;;;;;;;;;;;;;;;;;;;;
2023/04/29 09:54:52;;;;;;;;;;;;;;;23.28;40.90;98614.06;135249;1281;22531;-67
2023/04/29 09:57:55;;;;;;;;;;;;;;;23.24;41.73;98612.24;135314;1281;22514;-68
2023/04/29 10:00:59;;;;;;;;;;;;;;;23.38;41.78;98607.90;135301;1281;25348;-68
2023/04/29 10:04:03;;;;;;;;;;;;;;;23.46;40.83;98611.13;135312;1281;22505;-68
2023/04/29 10:07:05;;;;;;;;;;;;;;;23.54;40.31;98610.27;135288;1281;22514;-69
2023/04/29 10:10:09;;;;;;;;;;;;;;;23.34;39.75;98610.15;135320;1281;22530;-68
2023/04/29 10:13:13;;;;;;;;;;;;;;;23.10;39.44;98612.91;135347;1281;22987;-70
2023/04/29 10:16:16;;;;;;;;;;;;;;;22.82;39.60;98617.38;135297;1281;22519;-69
2023/04/29 10:19:20;;;;;;;;;;;;;;;22.57;39.57;98617.11;135379;1281;22491;-68
2023/04/29 10:22:22;;;;;;;;;;;;;;;22.31;39.49;98614.35;135321;1281;22535;-69
2023/04/29 10:25:27;;;;;;;;;;;;;;;22.07;39.69;98614.95;135309;1281;22619;-68
2023/04/29 10:28:31;;;;;;;;;;;;;;;21.89;40.21;98613.11;135343;1273;22623;-67
2023/04/29 10:31:35;;;;;;;;;;;;;;;21.77;40.32;98608.71;135335;1281;22530;-69
2023/04/29 10:34:39;;;;;;;;;;;;;;;21.64;40.39;98604.61;135315;1281;26442;-68
2023/04/29 10:37:43;;;;;;;;;;;;;;;21.57;40.61;98608.42;135330;1281;22520;-70
2023/04/29 10:40:47;;;;;;;;;;;;;;;21.60;40.56;98606.93;135328;1281;25270;-69
2023/04/29 10:43:50;;;;;;;;;;;;;;;21.68;40.53;98608.54;135316;1273;24188;-67
2023/04/29 10:46:52;;;;;;;;;;;;;;;21.67;40.49;98606.67;135265;1281;22521;-69
2023/04/29 10:49:56;;;;;;;;;;;;;;;21.66;40.65;98600.33;135323;1281;25386;-67
2023/04/29 10:53:00;;;;;;;;;;;;;;;21.80;40.61;98597.69;135315;1281;22547;-69
2023/04/29 10:56:02;;;;;;;;;;;;;;;22.00;40.32;98596.56;135346;1281;22533;-69
2023/04/29 10:59:09;;;;;;;;;;;;;;;21.99;40.03;98596.80;135314;1281;22515;-70
2023/04/29 11:02:11;;;;;;;;;;;;;;;22.02;39.86;98593.66;135343;1281;22522;-70
2023/04/29 11:05:17;;;;;;;;;;;;;;;21.93;40.03;98589.52;135353;1281;22539;-69
2023/04/29 11:08:22;;;;;;;;;;;;;;;21.74;40.21;98590.45;135296;1281;22506;-69
2023/04/29 11:11:26;;;;;;;;;;;;;;;21.61;40.26;98590.02;135339;1281;22500;-68
2023/04/29 11:14:30;;;;;;;;;;;;;;;21.58;40.27;98592.28;135333;1281;22519;-69
2023/04/29 11:17:36;;;;;;;;;;;;;;;21.57;40.07;98588.48;135328;1281;22512;-68
2023/04/29 11:20:39;;;;;;;;;;;;;;;21.48;40.07;98586.28;135314;1281;22516;-68
2023/04/29 11:23:44;;;;;;;;;;;;;;;21.27;40.20;98586.65;135340;1281;25391;-68
2023/04/29 11:26:47;;;;;;;;;;;;;;;21.14;40.66;98587.86;135316;1281;22592;-69
2023/04/29 11:29:50;;;;;;;;;;;;;;;21.06;40.50;98590.90;135307;1281;24203;-68
2023/04/29 11:32:54;;;;;;;;;;;;;;;20.87;40.82;98591.63;135327;1281;24377;-68
2023/04/29 11:35:57;;;;;;;;;;;;;;;20.83;40.67;98592.77;135366;1281;22508;-69
2023/04/29 11:39:00;;;;;;;;;;;;;;;20.65;41.25;98589.01;135319;1281;22529;-67
2023/04/29 11:42:04;;;;;;;;;;;;;;;20.69;41.58;98591.05;135358;1268;23020;-68
2023/04/29 11:45:07;;;;;;;;;;;;;;;20.67;41.74;98586.26;135331;1262;24209;-68
2023/04/29 11:48:10;;;;;;;;;;;;;;;20.90;42.26;98584.06;135327;1260;22562;-68
2023/04/29 11:51:13;;;;;;;;;;;;;;;21.27;42.11;98585.75;135309;1281;25272;-68
2023/04/29 11:54:16;;;;;;;;;;;;;;;21.60;42.24;98588.66;135360;1281;22507;-68
2023/04/29 11:57:21;;;;;;;;;;;;;;;21.81;42.02;98590.52;135343;1281;22507;-68
2023/04/29 12:00:23;;;;;;;;;;;;;;;21.79;42.06;98589.42;135352;1281;22530;-69
2023/04/29 12:03:26;;;;;;;;;;;;;;;21.79;41.75;98588.20;131256;1281;5376896;-68
2023/04/29 12:06:30;;;;;;;;;;;;;;;21.60;42.03;98587.08;135289;1281;22507;-67
2023/04/29 12:09:34;;;;;;;;;;;;;;;21.70;42.05;98588.35;135345;1281;22510;-67
2023/04/29 12:12:38;;;;;;;;;;;;;;;21.64;42.64;98584.66;135287;1281;22517;-68
2023/04/29 12:15:41;;;;;;;;;;;;;;;21.39;42.70;98583.84;135277;1268;22485;-67
2023/04/29 12:18:45;;;;;;;;;;;;;;;21.09;43.66;98587.66;135285;1281;24646;-70
2023/04/29 12:21:48;;;;;;;;;;;;;;;21.00;43.57;98591.86;135344;1281;22623;-69
2023/04/29 12:24:53;;;;;;;;;;;;;;;20.87;43.83;98589.72;135319;1281;23066;-67
2023/04/29 12:27:57;;;;;;;;;;;;;;;20.88;44.34;98586.85;135274;1281;22513;-68
2023/04/29 12:31:00;;;;;;;;;;;;;;;21.00;44.35;98587.40;135322;1281;22531;-68
2023/04/29 12:34:05;;;;;;;;;;;;;;;21.19;44.42;98590.13;135300;1281;22643;-68
2023/04/29 12:37:11;;;;;;;;;;;;;;;21.60;44.55;98586.96;135323;1269;24281;-68
2023/04/29 12:40:15;;;;;;;;;;;;;;;21.93;43.71;98588.25;135354;1281;24793;-68
2023/04/29 12:43:19;;;;;;;;;;;;;;;22.02;43.07;98587.58;135375;1281;22520;-69
2023/04/29 12:46:23;;;;;;;;;;;;;;;22.06;43.15;98584.70;135376;1281;26471;-68
2023/04/29 12:49:26;;;;;;;;;;;;;;;21.93;42.83;98582.33;135346;1281;24350;-68
2023/04/29 12:52:28;;;;;;;;;;;;;;;21.80;43.00;98581.02;135394;1281;22626;-70
2023/04/29 12:55:31;;;;;;;;;;;;;;;21.84;43.13;98577.40;135361;1281;22527;-67
2023/04/29 12:58:35;;;;;;;;;;;;;;;21.76;43.80;98578.92;135376;1264;22524;-68
2023/04/29 13:01:39;;;;;;;;;;;;;;;21.79;43.61;98577.16;135372;1281;22538;-69
2023/04/29 13:04:41;;;;;;;;;;;;;;;21.81;43.78;98576.44;135336;1281;22504;-68
2023/04/29 13:07:45;;;;;;;;;;;;;;;21.90;44.03;98573.88;135335;1281;22515;-67
2023/04/29 13:10:50;;;;;;;;;;;;;;;21.98;43.54;98569.77;135370;1281;22500;-68
2023/04/29 13:13:53;;;;;;;;;;;;;;;21.93;43.43;98572.77;135381;1281;22507;-68
2023/04/29 13:16:58;;;;;;;;;;;;;;;21.88;43.05;98569.98;135358;1281;22586;-68
2023/04/29 13:20:02;;;;;;;;;;;;;;;21.64;43.19;98566.70;135389;1281;22567;-68
2023/04/29 13:23:08;;;;;;;;;;;;;;;21.52;43.53;98565.94;135376;1281;25253;-68
2023/04/29 13:26:12;;;;;;;;;;;;;;;21.47;43.64;98562.70;135370;1281;22525;-67
2023/04/29 13:29:16;;;;;;;;;;;;;;;21.38;43.87;98565.30;135371;1281;25524;-69
2023/04/29 13:32:23;;;;;;;;;;;;;;;21.37;44.06;98559.00;135382;1281;22582;-68
2023/04/29 13:35:26;;;;;;;;;;;;;;;21.44;44.28;98559.56;135321;1281;25337;-68
2023/04/29 13:38:29;;;;;;;;;;;;;;;21.60;44.45;98559.72;135393;1281;22507;-67
2023/04/29 13:41:33;;;;;;;;;;;;;;;21.65;43.77;98559.17;135356;1281;22521;-68
2023/04/29 13:44:37;;;;;;;;;;;;;;;21.47;44.02;98555.21;135356;1281;22562;-67
2023/04/29 13:47:40;;;;;;;;;;;;;;;21.21;44.59;98557.56;135413;1270;22598;-68
2023/04/29 13:50:44;;;;;;;;;;;;;;;21.16;44.82;98557.23;135372;1281;22545;-67
2023/04/29 13:53:47;;;;;;;;;;;;;;;21.25;45.14;98559.12;135340;1281;22571;-67
2023/04/29 13:56:50;;;;;;;;;;;;;;;21.46;45.07;98559.79;135318;1281;22574;-67
2023/04/29 13:59:54;;;;;;;;;;;;;;;21.65;45.21;98556.00;135366;1262;22553;-68
2023/04/29 14:02:57;;;;;;;;;;;;;;;21.97;45.31;98556.00;135349;1281;22516;-68
2023/04/29 14:06:00;;;;;;;;;;;;;;;22.15;44.60;98553.91;135389;1264;22566;-67
2023/04/29 14:09:03;;;;;;;;;;;;;;;22.12;44.48;98556.90;135385;1281;24381;-67
2023/04/29 14:12:08;;;;;;;;;;;;;;;21.96;44.44;98553.20;135382;1276;22506;-67
2023/04/29 14:15:14;;;;;;;;;;;;;;;21.96;44.48;98555.24;135406;1281;22544;-68
2023/04/29 14:18:16;;;;;;;;;;;;;;;21.76;44.67;98557.94;135384;1281;25224;-68
2023/04/29 14:21:25;;;;;;;;;;;;;;;21.75;44.04;98556.64;135381;1281;22528;-67
2023/04/29 14:24:28;;;;;;;;;;;;;;;21.47;44.33;98551.33;135385;1281;25340;-68
2023/04/29 14:27:33;;;;;;;;;;;;;;;21.34;44.75;98551.58;135384;1281;22987;-68
2023/04/29 14:30:36;;;;;;;;;;;;;;;21.10;44.70;98550.43;135378;1281;22507;-70
2023/04/29 14:33:40;;;;;;;;;;;;;;;20.81;44.94;98551.21;135391;1281;22507;-68
2023/04/29 14:36:42;;;;;;;;;;;;;;;20.66;45.16;98552.11;135368;1261;25606;-68
2023/04/29 14:39:46;;;;;;;;;;;;;;;20.47;45.51;98549.83;135348;1281;22641;-68
2023/04/29 14:42:51;;;;;;;;;;;;;;;20.35;45.71;98548.65;135389;1281;22502;-68
2023/04/29 14:45:53;;;;;;;;;;;;;;;20.28;46.13;98546.23;135374;1270;22511;-68
2023/04/29 14:48:56;;;;;;;;;;;;;;;20.16;46.23;98547.42;135365;1262;24392;-67
2023/04/29 14:52:00;;;;;;;;;;;;;;;19.93;46.59;98549.11;135381;1281;22561;-68
2023/04/29 14:55:02;;;;;;;;;;;;;;;19.74;47.12;98548.18;135398;1281;22500;-67
2023/04/29 14:58:07;;;;;;;;;;;;;;;19.66;47.28;98548.87;135378;1281;24221;-68
2023/04/29 15:01:11;;;;;;;;;;;;;;;19.63;47.52;98553.80;135380;1281;22504;-68
2023/04/29 15:04:15;;;;;;;;;;;;;;;19.44;48.17;98555.15;135373;1281;22513;-68
2023/04/29 15:07:19;;;;;;;;;;;;;;;19.44;48.08;98559.30;135406;1281;22518;-68
2023/04/29 15:10:22;;;;;;;;;;;;;;;19.32;48.48;98557.45;135375;1281;22520;-68
2023/04/29 15:13:26;;;;;;;;;;;;;;;19.17;49.08;98559.52;135355;1281;22533;-67
2023/04/29 15:16:29;;;;;;;;;;;;;;;19.06;49.50;98560.77;135304;1281;22507;-68
2023/04/29 15:19:32;;;;;;;;;;;;;;;19.05;49.73;98561.80;135312;1281;22521;-68
2023/04/29 15:22:36;;;;;;;;;;;;;;;19.01;50.10;98562.64;135312;1281;22518;-67
2023/04/29 15:25:41;;;;;;;;;;;;;;;18.92;50.54;98561.05;135390;1281;22554;-68
2023/04/29 15:28:45;;;;;;;;;;;;;;;19.05;50.34;98560.90;135405;1281;22594;-68
2023/04/29 15:31:48;;;;;;;;;;;;;;;19.14;50.19;98557.65;135337;1260;24220;-68
2023/04/29 15:34:54;;;;;;;;;;;;;;;19.13;50.35;98559.77;135389;1281;22525;-67
2023/04/29 15:37:58;;;;;;;;;;;;;;;19.12;50.65;98560.05;135389;1281;22512;-67
2023/04/29 15:41:02;;;;;;;;;;;;;;;19.11;50.76;98559.08;135392;1281;22528;-68
2023/04/29 15:44:06;;;;;;;;;;;;;;;19.04;51.05;98558.67;135397;1281;22504;-68
2023/04/29 15:47:09;;;;;;;;;;;;;;;18.88;51.51;98560.56;135340;1281;22644;-67